Time;durP1;ratioP1;P1;durP2;ratioP2;P2;SDS_P1;SDS_P2;PMS_P1;PMS_P2;Temp;Humidity;BMP_temperature;BMP_pressure;BME280_temperature;BME280_humidity;BME280_pressure;Samples;Min_cycle;Max_cycle;Signal;HPM_P1;HPM_P2
2022/11/04 00:01:57;;;;;;;208.20;42.85;;;10.60;99.90;;;;;;5078167;28;20499;-51
2022/11/04 00:04:25;;;;;;;293.95;43.05;;;10.70;99.90;;;;;;5077140;28;20048;-51
2022/11/04 00:06:51;;;;;;;255.50;40.67;;;10.70;99.90;;;;;;5070403;28;20085;-51
2022/11/04 00:09:23;;;;;;;298.40;42.83;;;10.70;99.90;;;;;;5079424;28;20032;-51
2022/11/04 00:14:34;;;;;;;171.02;39.65;;;10.10;99.90;;;;;;5054713;28;20039;-50
2022/11/04 00:17:19;;;;;;;127.97;36.55;;;10.60;99.90;;;;;;5071582;28;20384;-51
2022/11/04 00:33:24;;;;;;;160.20;41.20;;;10.80;99.90;;;;;;5085016;28;20074;-52
2022/11/04 00:33:47;;;;;;;178.90;37.88;;;10.90;99.90;;;;;;5074107;28;20024;-52
2022/11/04 00:36:13;;;;;;;150.32;36.90;;;10.90;99.90;;;;;;5056098;28;20566;-52
2022/11/04 00:38:39;;;;;;;162.68;39.58;;;10.50;99.90;;;;;;5045520;28;20041;-52
2022/11/04 00:41:24;;;;;;;207.23;41.40;;;11.00;99.90;;;;;;5061144;28;20079;-53
2022/11/04 00:44:01;;;;;;;123.22;39.88;;;10.70;99.90;;;;;;5038166;28;20045;-49
2022/11/04 00:46:29;;;;;;;206.90;42.15;;;10.60;99.90;;;;;;5052200;28;20065;-50
2022/11/04 00:48:55;;;;;;;175.63;39.75;;;10.40;99.90;;;;;;5024889;28;20132;-51
2022/11/04 00:51:21;;;;;;;150.15;39.83;;;10.30;99.90;;;;;;5055997;28;20047;-50
2022/11/04 00:53:47;;;;;;;118.97;43.88;;;;;;;;;;5031733;28;20034;-51
2022/11/04 00:56:13;;;;;;;137.85;43.25;;;10.20;99.90;;;;;;5061379;28;20372;-52
2022/11/04 00:58:39;;;;;;;154.68;38.60;;;10.30;99.90;;;;;;5059167;28;20044;-52
2022/11/04 01:01:12;;;;;;;134.38;40.45;;;9.90;99.90;;;;;;5041125;28;20403;-50
2022/11/04 01:03:38;;;;;;;96.15;34.55;;;9.30;99.90;;;;;;5053760;28;20061;-51
2022/11/04 01:06:04;;;;;;;126.10;31.85;;;9.00;99.90;;;;;;5009701;28;20025;-49
2022/11/04 01:08:30;;;;;;;134.23;35.15;;;9.00;99.90;;;;;;5033262;28;20037;-49
2022/11/04 01:10:56;;;;;;;134.00;36.25;;;8.80;99.90;;;;;;5051947;28;20040;-51
2022/11/04 01:13:21;;;;;;;133.15;36.33;;;8.80;99.90;;;;;;5088326;28;20052;-50
2022/11/04 01:15:47;;;;;;;125.70;34.17;;;9.00;99.90;;;;;;5084929;28;20406;-50
2022/11/04 01:18:13;;;;;;;104.90;32.03;;;8.90;99.90;;;;;;5057424;28;20036;-51
2022/11/04 01:20:38;;;;;;;100.78;35.28;;;8.70;99.90;;;;;;5070707;28;20045;-50
2022/11/04 01:23:04;;;;;;;125.05;34.90;;;8.70;99.90;;;;;;5062873;28;20119;-50
2022/11/04 01:25:30;;;;;;;152.18;35.65;;;8.60;99.90;;;;;;5075066;28;20031;-51
2022/11/04 01:27:55;;;;;;;83.70;34.35;;;8.50;99.90;;;;;;5089390;28;20073;-50
2022/11/04 01:30:21;;;;;;;120.57;32.70;;;8.60;99.90;;;;;;5085291;28;20078;-49
2022/11/04 01:32:47;;;;;;;109.05;33.47;;;9.10;99.90;;;;;;5080893;28;20029;-52
2022/11/04 01:35:13;;;;;;;114.40;35.13;;;9.00;99.90;;;;;;5084928;28;20044;-50
2022/11/04 01:37:38;;;;;;;132.02;34.78;;;9.20;99.90;;;;;;5064679;28;20124;-50
2022/11/04 01:40:04;;;;;;;102.15;32.47;;;8.90;99.90;;;;;;5082126;28;20043;-51
2022/11/04 01:42:30;;;;;;;106.75;31.80;;;9.00;99.90;;;;;;5071963;28;20404;-50
2022/11/04 01:44:59;;;;;;;75.05;30.05;;;9.10;99.90;;;;;;5087589;28;20036;-49
2022/11/04 01:47:36;;;;;;;88.03;31.02;;;9.60;99.90;;;;;;5083371;28;20353;-50
2022/11/04 01:50:19;;;;;;;85.80;30.50;;;9.40;99.90;;;;;;5073932;28;20057;-51
2022/11/04 01:52:51;;;;;;;108.57;32.53;;;9.20;99.90;;;;;;5081075;28;20074;-50
2022/11/04 01:55:23;;;;;;;96.45;33.45;;;9.40;99.90;;;;;;5079830;28;20041;-49
2022/11/04 01:57:50;;;;;;;;;;;9.40;99.90;;;;;;5087345;28;20029;-51
2022/11/04 02:00:17;;;;;;;84.32;30.58;;;9.60;99.90;;;;;;5073647;28;19909;-51
2022/11/04 02:03:09;;;;;;;88.72;31.00;;;9.10;99.90;;;;;;5079644;28;20162;-51
2022/11/04 02:05:35;;;;;;;68.70;28.90;;;9.10;99.90;;;;;;5057525;28;20037;-51
2022/11/04 02:08:04;;;;;;;86.88;29.83;;;10.50;99.90;;;;;;5071758;28;20028;-50
2022/11/04 02:10:30;;;;;;;68.70;30.98;;;8.90;99.90;;;;;;5078632;28;20021;-49
2022/11/04 02:12:59;;;;;;;97.28;33.55;;;9.10;99.90;;;;;;5076390;28;20087;-52
2022/11/04 02:15:32;;;;;;;82.80;33.25;;;9.10;99.90;;;;;;5078085;28;20028;-50
2022/11/04 02:18:46;;;;;;;132.65;36.28;;;9.20;99.90;;;;;;5079462;28;20047;-51
2022/11/04 02:21:30;;;;;;;112.22;35.72;;;9.20;99.90;;;;;;4994552;28;20050;-50
2022/11/04 02:24:26;;;;;;;92.75;30.05;;;9.50;99.90;;;;;;4998162;28;20041;-49
2022/11/04 02:27:22;;;;;;;138.82;37.80;;;9.60;99.90;;;;;;4999660;28;20042;-51
2022/11/04 02:30:09;;;;;;;77.85;35.13;;;9.90;99.90;;;;;;4998976;28;20501;-48
2022/11/04 02:32:56;;;;;;;109.10;32.85;;;10.00;99.90;;;;;;4971202;28;20062;-48
2022/11/04 02:35:39;;;;;;;83.20;33.83;;;10.00;99.90;;;;;;4997333;28;20066;-49
2022/11/04 02:38:11;;;;;;;102.68;32.10;;;9.90;99.90;;;;;;4991524;28;20448;-51
2022/11/04 02:40:50;;;;;;;97.38;31.52;;;10.10;99.90;;;;;;4998680;28;20038;-50
2022/11/04 02:43:49;;;;;;;93.20;28.80;;;;;;;;;;4993615;28;20042;-50
2022/11/04 02:46:22;;;;;;;79.97;31.17;;;9.50;99.90;;;;;;4957356;28;20050;-49
2022/11/04 02:48:59;;;;;;;100.55;29.48;;;9.50;99.90;;;;;;4953116;28;20383;-49
2022/11/04 02:51:40;;;;;;;76.13;28.77;;;9.50;99.90;;;;;;4959751;28;20169;-50
2022/11/04 02:54:28;;;;;;;115.28;32.83;;;8.90;99.90;;;;;;4950825;28;20024;-50
2022/11/04 02:56:57;;;;;;;90.07;31.65;;;8.80;99.90;;;;;;4980154;28;20076;-50
2022/11/04 02:59:45;;;;;;;87.78;32.15;;;8.70;99.90;;;;;;5030084;28;20038;-50
2022/11/04 03:02:16;;;;;;;60.75;28.52;;;8.70;99.90;;;;;;5029769;28;20056;-50
2022/11/04 03:04:46;;;;;;;101.25;29.40;;;8.90;99.90;;;;;;5032681;28;20500;-49
2022/11/04 03:07:16;;;;;;;66.10;28.52;;;8.90;99.90;;;;;;5029576;28;20103;-48
2022/11/04 03:09:52;;;;;;;103.07;27.00;;;8.60;99.90;;;;;;5033840;28;20124;-50
2022/11/04 03:12:22;;;;;;;92.82;29.33;;;8.40;99.90;;;;;;5039936;28;20431;-51
2022/11/04 03:14:53;;;;;;;57.30;24.77;;;8.30;99.90;;;;;;5037012;28;20053;-50
2022/11/04 03:17:41;;;;;;;67.50;25.67;;;8.70;99.90;;;;;;5036283;28;20086;-49
2022/11/04 03:20:15;;;;;;;46.92;25.42;;;8.90;99.90;;;;;;5032923;28;20452;-49
2022/11/04 03:22:41;;;;;;;41.25;23.60;;;8.80;99.90;;;;;;5066358;28;20544;-50
2022/11/04 03:25:08;;;;;;;38.50;23.48;;;9.00;99.90;;;;;;5076405;28;20124;-50
2022/11/04 03:27:57;;;;;;;47.22;25.77;;;8.80;99.90;;;;;;5047297;28;20187;-50
2022/11/04 03:30:23;;;;;;;54.00;26.23;;;8.50;99.90;;;;;;5080742;28;20531;-48
2022/11/04 03:33:19;;;;;;;75.72;27.40;;;8.60;99.90;;;;;;5076810;28;20048;-49
2022/11/04 03:35:45;;;;;;;36.20;25.48;;;8.30;99.90;;;;;;5075046;28;20039;-50
2022/11/04 03:38:11;;;;;;;46.63;26.45;;;8.40;99.90;;;;;;5078117;28;20036;-48
2022/11/04 03:40:37;;;;;;;117.65;29.85;;;8.50;99.90;;;;;;5065280;28;20024;-48
2022/11/04 03:43:13;;;;;;;104.75;27.70;;;8.40;99.90;;;;;;5075313;28;20039;-50
2022/11/04 03:45:40;;;;;;;87.65;28.20;;;8.10;99.90;;;;;;5074171;28;20059;-50
2022/11/04 03:48:06;;;;;;;75.72;28.35;;;8.00;99.90;;;;;;5078735;28;20368;-50
2022/11/04 03:50:40;;;;;;;82.80;28.13;;;8.10;99.90;;;;;;5079421;28;20039;-49
2022/11/04 03:53:07;;;;;;;65.45;27.90;;;;;;;;;;5075819;28;20032;-49
2022/11/04 03:56:10;;;;;;;50.75;27.75;;;8.20;99.90;;;;;;5071411;28;20493;-48
2022/11/04 03:59:03;;;;;;;56.00;28.58;;;7.80;99.90;;;;;;5070393;28;20037;-48
2022/11/04 04:01:53;;;;;;;59.78;26.27;;;7.60;99.90;;;;;;5082561;28;20557;-50
2022/11/04 04:04:43;;;;;;;52.50;25.02;;;7.50;99.90;;;;;;5079173;28;20079;-50
2022/11/04 04:07:23;;;;;;;52.97;29.83;;;7.30;99.90;;;;;;5073141;28;20028;-49
2022/11/04 04:10:40;;;;;;;37.80;27.42;;;7.40;99.90;;;;;;5048441;28;20040;-49
2022/11/04 04:13:15;;;;;;;61.38;32.58;;;7.70;99.90;;;;;;5080831;28;20063;-50
2022/11/04 04:15:47;;;;;;;45.25;26.80;;;7.60;99.90;;;;;;5077443;28;20036;-48
2022/11/04 04:18:14;;;;;;;;;;;7.40;99.90;;;;;;5086642;28;20036;-50
2022/11/04 04:20:41;;;;;;;34.83;23.35;;;7.10;99.90;;;;;;5068144;28;20009;-50
2022/11/04 04:28:50;;;;;;;54.75;27.80;;;7.40;99.90;;;;;;5084520;28;20155;-49
2022/11/04 04:31:48;;;;;;;46.17;26.80;;;7.30;99.90;;;;;;5090223;28;20032;-48
2022/11/04 04:34:04;;;;;;;47.97;29.58;;;7.10;99.90;;;;;;5085012;28;20111;-50
2022/11/04 04:36:34;;;;;;;57.10;29.67;;;7.00;99.90;;;;;;5085987;28;20483;-50
2022/11/04 04:47:23;;;;;;;41.75;29.17;;;8.00;99.90;;;;;;5066955;28;20070;-48
2022/11/04 04:49:56;;;;;;;42.95;29.05;;;8.10;99.90;;;;;;5087508;28;20853;-48
2022/11/04 04:52:25;;;;;;;43.58;30.15;;;7.90;99.90;;;;;;5081838;28;20024;-51
2022/11/04 04:54:51;;;;;;;43.92;29.63;;;8.00;99.90;;;;;;5079795;28;20038;-49
2022/11/04 04:57:18;;;;;;;41.67;29.95;;;8.10;99.90;;;;;;5034939;28;20115;-50
2022/11/04 04:59:43;;;;;;;41.72;30.10;;;8.40;99.90;;;;;;5077583;28;20020;-50
2022/11/04 05:02:09;;;;;;;63.53;36.92;;;8.50;99.90;;;;;;5056030;28;20120;-50
2022/11/04 05:04:35;;;;;;;64.80;36.75;;;8.70;99.90;;;;;;5072913;28;20118;-50
2022/11/04 05:07:00;;;;;;;68.88;41.10;;;8.70;99.90;;;;;;5082822;28;20058;-49
2022/11/04 05:09:26;;;;;;;46.15;31.35;;;8.70;99.90;;;;;;5079887;28;20069;-48
2022/11/04 05:11:52;;;;;;;43.63;30.63;;;8.80;99.90;;;;;;5079285;28;20473;-50
2022/11/04 05:14:18;;;;;;;37.50;27.35;;;8.80;99.90;;;;;;5077806;28;20356;-48
2022/11/04 05:16:43;;;;;;;61.30;38.28;;;8.80;99.90;;;;;;5080263;28;20028;-48
2022/11/04 05:19:09;;;;;;;43.15;27.75;;;8.90;99.90;;;;;;5087317;28;20024;-49
2022/11/04 05:21:35;;;;;;;36.92;26.33;;;8.70;99.90;;;;;;5078764;28;20464;-48
2022/11/04 05:24:01;;;;;;;38.60;28.45;;;8.80;99.90;;;;;;5076805;28;20079;-50
2022/11/04 05:26:26;;;;;;;44.03;30.65;;;8.90;99.90;;;;;;5061149;28;20052;-50
2022/11/04 05:28:52;;;;;;;46.55;31.90;;;8.90;99.90;;;;;;5065108;28;20040;-49
2022/11/04 05:31:18;;;;;;;52.33;33.35;;;8.90;99.90;;;;;;5065495;28;20098;-50
2022/11/04 05:33:43;;;;;;;71.50;45.45;;;9.00;99.90;;;;;;5062070;28;20112;-51
2022/11/04 05:36:12;;;;;;;51.00;35.25;;;9.20;99.90;;;;;;5035635;28;20044;-50
2022/11/04 05:38:38;;;;;;;51.92;34.25;;;9.40;99.90;;;;;;5065492;28;20032;-49
2022/11/04 05:41:05;;;;;;;57.25;36.63;;;9.30;99.90;;;;;;5065348;28;20040;-50
2022/11/04 05:43:32;;;;;;;62.33;37.58;;;9.30;99.90;;;;;;5064822;28;20035;-51
2022/11/04 05:45:58;;;;;;;70.78;37.10;;;9.30;99.90;;;;;;5052669;28;20037;-49
2022/11/04 05:48:24;;;;;;;78.63;38.10;;;9.30;99.90;;;;;;5048024;28;20423;-49
2022/11/04 05:50:50;;;;;;;94.25;39.78;;;9.50;99.90;;;;;;5062486;28;20033;-52
2022/11/04 05:53:16;;;;;;;138.15;43.58;;;9.50;99.90;;;;;;5068584;28;20103;-52
2022/11/04 05:55:42;;;;;;;105.68;42.92;;;9.60;99.90;;;;;;5066202;28;20123;-52
2022/11/04 05:58:07;;;;;;;153.93;46.97;;;9.50;99.90;;;;;;5071690;28;20044;-51
2022/11/04 06:00:33;;;;;;;106.38;44.67;;;9.30;99.90;;;;;;5073570;28;20035;-51
2022/11/04 06:02:59;;;;;;;149.13;43.53;;;9.40;99.90;;;;;;5072321;28;20032;-50
2022/11/04 06:05:26;;;;;;;115.70;38.83;;;9.60;99.90;;;;;;5079613;28;20496;-53
2022/11/04 06:07:52;;;;;;;103.72;38.88;;;9.50;99.90;;;;;;5071805;28;20028;-50
2022/11/04 06:10:17;;;;;;;82.90;39.30;;;9.60;99.90;;;;;;5075473;28;20024;-49
2022/11/04 06:12:43;;;;;;;86.53;39.33;;;9.40;99.90;;;;;;5073619;28;20065;-51
2022/11/04 06:15:09;;;;;;;104.13;39.45;;;9.50;99.90;;;;;;5074383;28;20033;-50
2022/11/04 06:17:35;;;;;;;108.10;40.10;;;9.00;99.90;;;;;;5082470;28;20020;-50
2022/11/04 06:20:01;;;;;;;124.20;40.33;;;9.30;99.90;;;;;;5034168;28;20143;-49
2022/11/04 06:22:26;;;;;;;106.40;39.67;;;9.50;99.90;;;;;;5066903;28;20040;-49
2022/11/04 06:24:52;;;;;;;114.38;38.78;;;9.40;99.90;;;;;;5069104;28;20032;-50
2022/11/04 06:27:18;;;;;;;111.03;42.03;;;9.30;99.90;;;;;;5078406;28;20081;-50
2022/11/04 06:29:44;;;;;;;80.18;37.38;;;9.50;99.90;;;;;;5075162;28;20111;-49
2022/11/04 06:32:15;;;;;;;64.85;34.90;;;9.90;99.90;;;;;;5077592;28;20039;-50
2022/11/04 06:34:41;;;;;;;77.85;36.92;;;10.30;99.90;;;;;;5072773;28;20040;-49
2022/11/04 06:37:08;;;;;;;55.08;31.48;;;10.40;99.90;;;;;;5079393;28;20399;-50
2022/11/04 06:39:34;;;;;;;50.28;34.10;;;;;;;;;;5079538;28;20513;-50
2022/11/04 06:42:00;;;;;;;43.83;30.45;;;12.50;99.90;;;;;;5076491;28;20479;-51
2022/11/04 06:44:26;;;;;;;40.00;29.00;;;;;;;;;;5082848;28;20035;-50
2022/11/04 06:46:52;;;;;;;42.42;31.48;;;15.20;99.90;;;;;;5077831;28;20021;-50
2022/11/04 06:49:19;;;;;;;45.05;34.38;;;;;;;;;;5053475;28;20426;-51
2022/11/04 06:51:47;;;;;;;42.33;34.80;;;;;;;;;;5071807;28;20028;-50
2022/11/04 06:54:13;;;;;;;43.00;33.83;;;;;;;;;;5071350;28;20043;-50
2022/11/04 06:56:40;;;;;;;47.67;35.30;;;;;;;;;;5082531;28;20070;-50
2022/11/04 06:59:06;;;;;;;46.30;35.22;;;;;;;;;;5081199;28;20040;-52
2022/11/04 07:01:35;;;;;;;44.78;35.05;;;19.10;99.90;;;;;;5073165;28;20048;-50
2022/11/04 07:04:02;;;;;;;41.40;32.35;;;;;;;;;;5073983;28;20056;-50
2022/11/04 07:06:28;;;;;;;45.20;36.58;;;20.10;99.90;;;;;;5062845;28;20036;-50
2022/11/04 07:08:57;;;;;;;46.65;35.80;;;19.10;99.90;;;;;;5079299;28;20024;-50
2022/11/04 07:11:24;;;;;;;45.83;35.70;;;17.20;99.90;;;;;;5074733;28;20036;-50
2022/11/04 07:13:50;;;;;;;40.40;34.20;;;17.00;99.90;;;;;;5082390;28;20028;-50
2022/11/04 07:16:16;;;;;;;36.47;29.95;;;;;;;;;;5083344;28;20131;-50
2022/11/04 07:18:42;;;;;;;36.13;28.35;;;;;;;;;;5073313;28;20173;-51
2022/11/04 07:21:09;;;;;;;31.92;27.27;;;;;;;;;;5065576;28;20039;-50
2022/11/04 07:23:35;;;;;;;28.52;24.85;;;;;;;;;;5081620;28;20036;-48
2022/11/04 07:26:03;;;;;;;28.73;25.02;;;22.70;99.90;;;;;;5064016;28;20052;-49
2022/11/04 07:28:29;;;;;;;28.55;25.45;;;22.60;99.90;;;;;;5056959;28;20041;-48
2022/11/04 07:30:59;;;;;;;29.52;25.13;;;24.20;98.50;;;;;;5067247;28;20115;-48
2022/11/04 07:33:26;;;;;;;27.00;23.05;;;24.00;97.70;;;;;;5080451;28;20364;-48
2022/11/04 07:35:53;;;;;;;26.20;23.45;;;25.20;99.90;;;;;;5074288;28;20036;-49
2022/11/04 07:38:20;;;;;;;24.42;21.83;;;25.40;99.90;;;;;;5076368;28;20032;-47
2022/11/04 07:40:46;;;;;;;27.60;24.05;;;23.80;94.50;;;;;;5074649;28;20043;-48
2022/11/04 07:43:12;;;;;;;34.53;26.25;;;22.70;95.10;;;;;;5077936;28;20033;-48
2022/11/04 07:45:38;;;;;;;31.52;26.70;;;;;;;;;;5032365;28;20078;-48
2022/11/04 07:48:04;;;;;;;31.40;26.02;;;19.90;98.50;;;;;;5076536;28;20089;-49
2022/11/04 07:50:29;;;;;;;34.20;26.33;;;19.50;99.70;;;;;;5055254;28;20041;-48
2022/11/04 07:52:55;;;;;;;28.77;25.23;;;18.00;99.90;;;;;;5078670;28;20605;-47
2022/11/04 07:55:21;;;;;;;30.13;23.98;;;16.70;99.90;;;;;;5069104;28;20397;-48
2022/11/04 07:57:47;;;;;;;33.65;25.80;;;15.90;99.90;;;;;;5031985;28;20025;-48
2022/11/04 08:00:15;;;;;;;35.38;27.27;;;14.80;99.90;;;;;;5066621;28;20032;-48
2022/11/04 08:02:45;;;;;;;35.92;28.02;;;14.10;99.90;;;;;;5066374;28;20587;-48
2022/11/04 08:05:14;;;;;;;37.13;29.38;;;14.00;99.90;;;;;;5061476;28;20059;-51
2022/11/04 08:07:40;;;;;;;39.10;28.05;;;13.70;99.90;;;;;;5065678;28;20032;-50
2022/11/04 08:10:07;;;;;;;38.67;27.75;;;14.10;99.90;;;;;;5064797;28;20115;-52
2022/11/04 08:12:33;;;;;;;41.75;28.65;;;14.20;99.90;;;;;;5063090;28;20052;-51
2022/11/04 08:14:59;;;;;;;41.40;26.77;;;14.40;99.90;;;;;;5048430;28;20068;-49
2022/11/04 08:17:25;;;;;;;40.30;25.17;;;14.40;99.90;;;;;;5068447;28;20467;-51
2022/11/04 08:19:51;;;;;;;31.65;21.80;;;14.40;99.90;;;;;;5066360;28;20025;-50
2022/11/04 08:22:17;;;;;;;38.88;25.35;;;14.60;99.90;;;;;;5048815;28;20032;-50
2022/11/04 08:24:46;;;;;;;39.13;25.80;;;14.50;99.90;;;;;;5047104;28;20028;-50
2022/11/04 08:27:11;;;;;;;33.47;24.58;;;14.60;99.90;;;;;;5047282;28;20500;-49
2022/11/04 08:29:38;;;;;;;36.10;24.20;;;14.60;99.90;;;;;;5047107;28;20029;-49
2022/11/04 08:32:04;;;;;;;37.15;24.88;;;15.00;99.90;;;;;;5046677;28;20033;-49
2022/11/04 08:34:30;;;;;;;34.08;25.27;;;15.10;99.90;;;;;;5047299;28;20461;-51
2022/11/04 08:36:56;;;;;;;39.38;27.38;;;15.20;99.90;;;;;;5060854;28;20047;-50
2022/11/04 08:39:23;;;;;;;31.65;22.80;;;15.30;99.90;;;;;;5043856;28;20514;-50
2022/11/04 08:41:49;;;;;;;37.55;24.02;;;15.00;99.90;;;;;;5047107;28;20064;-51
2022/11/04 08:44:16;;;;;;;42.35;27.27;;;15.00;99.90;;;;;;5047396;28;20028;-51
2022/11/04 08:46:43;;;;;;;41.05;27.35;;;15.30;99.90;;;;;;5047761;28;20115;-51
2022/11/04 08:49:10;;;;;;;38.50;26.65;;;;;;;;;;5027472;28;20030;-51
2022/11/04 08:51:38;;;;;;;37.10;27.02;;;15.80;99.90;;;;;;5048086;28;20055;-50
2022/11/04 08:54:04;;;;;;;38.85;26.23;;;15.80;99.90;;;;;;5024853;28;20038;-50
2022/11/04 08:56:34;;;;;;;37.47;26.15;;;16.10;99.90;;;;;;5028951;28;20057;-51
2022/11/04 08:59:01;;;;;;;38.17;24.40;;;15.80;99.90;;;;;;5028647;28;20120;-50
2022/11/04 09:01:28;;;;;;;38.05;25.98;;;15.70;99.90;;;;;;5023075;28;20091;-50
2022/11/04 09:03:54;;;;;;;34.33;26.10;;;15.40;99.90;;;;;;5031047;28;20051;-49
2022/11/04 09:06:25;;;;;;;38.85;25.48;;;15.40;99.90;;;;;;5044320;28;20033;-51
2022/11/04 09:08:55;;;;;;;35.60;26.05;;;15.40;99.90;;;;;;5046638;28;21606;-49
2022/11/04 09:11:21;;;;;;;31.15;23.15;;;15.50;99.90;;;;;;5050139;28;20028;-49
2022/11/04 09:13:47;;;;;;;32.90;23.40;;;15.50;99.90;;;;;;5045834;28;20045;-49
2022/11/04 09:16:14;;;;;;;34.75;23.73;;;;;;;;;;5051356;28;20029;-50
2022/11/04 09:18:40;;;;;;;30.63;21.25;;;;;;;;;;5051798;28;20028;-50
2022/11/04 09:21:07;;;;;;;34.13;21.13;;;;;;;;;;5018774;28;20060;-50
2022/11/04 09:23:33;;;;;;;33.17;20.65;;;15.90;99.90;;;;;;5052625;28;20063;-49
2022/11/04 09:26:10;;;;;;;32.63;22.23;;;16.00;99.90;;;;;;5065623;28;20476;-50
2022/11/04 09:28:36;;;;;;;32.47;22.23;;;16.10;99.90;;;;;;5070613;28;20025;-50
2022/11/04 09:31:13;;;;;;;33.55;22.42;;;15.90;99.90;;;;;;5066764;28;20099;-49
2022/11/04 09:33:39;;;;;;;31.88;22.92;;;;;;;;;;5073931;28;20020;-49
2022/11/04 09:36:06;;;;;;;26.98;16.20;;;;;;;;;;5067678;28;20487;-49
2022/11/04 09:38:32;;;;;;;35.55;23.88;;;16.00;99.90;;;;;;5048817;28;20469;-49
2022/11/04 09:40:59;;;;;;;33.97;21.98;;;;;;;;;;5068168;28;20089;-49
2022/11/04 09:43:27;;;;;;;34.75;21.25;;;16.40;99.90;;;;;;5067804;28;20028;-50
2022/11/04 09:45:54;;;;;;;32.92;22.42;;;16.70;99.90;;;;;;5054948;28;20189;-49
2022/11/04 09:48:42;;;;;;;30.70;21.08;;;16.80;99.90;;;;;;5066101;28;20037;-49
2022/11/04 09:51:15;;;;;;;33.50;20.83;;;16.70;99.90;;;;;;5068223;28;20028;-51
2022/11/04 09:54:09;;;;;;;35.85;22.13;;;16.70;99.90;;;;;;5048659;28;20052;-49
2022/11/04 09:56:37;;;;;;;32.85;21.10;;;16.80;99.90;;;;;;5046414;28;20485;-50
2022/11/04 09:59:05;;;;;;;35.00;21.73;;;16.90;99.90;;;;;;5048630;28;20017;-50
2022/11/04 10:01:31;;;;;;;31.52;20.15;;;;;;;;;;5048182;28;20020;-51
2022/11/04 10:04:14;;;;;;;35.78;22.05;;;17.60;99.90;;;;;;5032727;28;20075;-49
2022/11/04 10:06:43;;;;;;;30.83;21.17;;;17.50;99.90;;;;;;5046612;28;20568;-50
2022/11/04 10:09:20;;;;;;;29.90;20.23;;;17.60;99.90;;;;;;5013363;28;20151;-49
2022/11/04 10:12:16;;;;;;;30.60;20.42;;;17.80;99.90;;;;;;5048120;28;20033;-50
2022/11/04 10:14:54;;;;;;;33.33;21.77;;;17.70;99.90;;;;;;5047259;28;20042;-50
2022/11/04 10:17:41;;;;;;;31.70;22.75;;;17.80;99.90;;;;;;5014519;28;20118;-50
2022/11/04 10:20:25;;;;;;;33.50;21.88;;;18.00;99.90;;;;;;5030501;28;20392;-50
2022/11/04 10:23:07;;;;;;;33.50;20.25;;;18.00;99.90;;;;;;5044998;28;20082;-50
2022/11/04 10:25:56;;;;;;;34.58;21.50;;;18.10;99.90;;;;;;5059153;28;20051;-49
2022/11/04 10:28:29;;;;;;;30.98;22.05;;;18.90;99.90;;;;;;5028305;28;20107;-53
2022/11/04 10:30:55;;;;;;;33.63;21.20;;;19.40;99.90;;;;;;5024476;28;20595;-56
2022/11/04 10:33:21;;;;;;;28.80;20.98;;;;;;;;;;5027089;28;20120;-50
2022/11/04 10:35:52;;;;;;;34.70;20.92;;;19.70;99.90;;;;;;5028420;28;20044;-53
2022/11/04 10:38:35;;;;;;;37.78;19.90;;;19.80;99.90;;;;;;5020177;28;20499;-53
2022/11/04 10:41:02;;;;;;;31.42;19.77;;;19.60;99.90;;;;;;4990346;28;20045;-51
2022/11/04 10:43:36;;;;;;;35.42;20.67;;;19.40;99.90;;;;;;5025581;28;20032;-50
2022/11/04 10:46:29;;;;;;;35.60;22.27;;;19.20;99.90;;;;;;5024815;28;20033;-51
2022/11/04 10:49:04;;;;;;;33.50;21.48;;;19.30;99.90;;;;;;5023909;28;20029;-53
2022/11/04 10:51:31;;;;;;;35.42;20.23;;;19.10;99.90;;;;;;5028589;28;20029;-51
2022/11/04 10:53:59;;;;;;;30.92;21.10;;;19.00;99.90;;;;;;5029483;28;20025;-52
2022/11/04 10:56:52;;;;;;;37.13;23.05;;;18.80;99.90;;;;;;5026376;28;20127;-53
2022/11/04 10:59:26;;;;;;;41.03;23.38;;;18.60;99.90;;;;;;4997315;28;20040;-53
2022/11/04 11:01:54;;;;;;;36.97;22.40;;;18.50;99.90;;;;;;5030747;28;20021;-54
2022/11/04 11:04:35;;;;;;;36.45;22.23;;;18.60;99.90;;;;;;5026280;28;20405;-51
2022/11/04 11:07:04;;;;;;;41.20;22.20;;;18.60;99.90;;;;;;5048514;28;20025;-53
2022/11/04 11:09:36;;;;;;;34.97;22.65;;;18.60;99.90;;;;;;5050754;28;20524;-53
2022/11/04 11:12:05;;;;;;;38.78;22.95;;;18.50;99.90;;;;;;5051618;28;20365;-51
2022/11/04 11:14:36;;;;;;;37.67;22.90;;;18.60;99.90;;;;;;5049821;28;20457;-52
2022/11/04 11:17:18;;;;;;;38.00;22.05;;;18.50;99.90;;;;;;5063046;28;20064;-53
2022/11/04 11:19:51;;;;;;;48.67;32.40;;;18.40;99.90;;;;;;5049100;28;20477;-51
2022/11/04 11:22:26;;;;;;;138.20;81.68;;;18.40;99.90;;;;;;5044502;28;20466;-51
2022/11/04 11:24:52;;;;;;;96.70;55.97;;;18.50;99.90;;;;;;5051284;28;20074;-50
2022/11/04 11:27:21;;;;;;;59.78;37.40;;;18.50;99.90;;;;;;5047681;28;20036;-49
2022/11/04 11:29:54;;;;;;;46.35;28.05;;;18.50;99.90;;;;;;5051234;28;20467;-48
2022/11/04 11:32:31;;;;;;;48.72;29.20;;;18.50;99.90;;;;;;5024006;28;20041;-50
2022/11/04 11:35:00;;;;;;;40.50;26.52;;;18.60;99.90;;;;;;5048185;28;20037;-50
2022/11/04 11:37:29;;;;;;;43.15;25.63;;;18.50;99.90;;;;;;5045910;28;20484;-50
2022/11/04 11:39:56;;;;;;;45.28;28.10;;;18.60;99.90;;;;;;5052109;28;20089;-48
2022/11/04 11:42:23;;;;;;;79.03;45.03;;;18.60;99.90;;;;;;5015360;28;20087;-49
2022/11/04 11:44:53;;;;;;;80.03;47.28;;;18.60;99.90;;;;;;5050764;28;20029;-49
2022/11/04 11:47:27;;;;;;;75.22;47.00;;;18.70;99.90;;;;;;5049958;28;20072;-47
2022/11/04 11:50:11;;;;;;;56.50;32.33;;;18.60;99.90;;;;;;5050335;28;20036;-48
2022/11/04 11:52:37;;;;;;;40.55;24.35;;;18.60;99.90;;;;;;5048961;28;20033;-48
2022/11/04 11:55:06;;;;;;;36.20;21.58;;;18.60;99.90;;;;;;5066338;28;20041;-48
2022/11/04 11:57:48;;;;;;;39.47;23.13;;;18.60;99.90;;;;;;5046678;28;20033;-50
2022/11/04 12:00:17;;;;;;;40.05;27.10;;;18.50;99.90;;;;;;5049396;28;20113;-49
2022/11/04 12:03:12;;;;;;;34.28;23.15;;;18.50;99.90;;;;;;5031048;28;20053;-51
2022/11/04 12:06:19;;;;;;;40.97;24.70;;;18.40;99.90;;;;;;5049968;28;20048;-55
2022/11/04 12:09:17;;;;;;;92.28;57.85;;;18.50;99.90;;;;;;4987986;28;20052;-49
2022/11/04 12:12:01;;;;;;;90.13;54.42;;;18.40;99.90;;;;;;5025711;28;20053;-52
2022/11/04 12:14:35;;;;;;;55.30;34.10;;;18.50;99.90;;;;;;5024904;28;20037;-47
2022/11/04 12:17:23;;;;;;;59.20;33.63;;;18.50;99.90;;;;;;5025630;28;20064;-48
2022/11/04 12:19:52;;;;;;;85.60;44.85;;;18.70;99.90;;;;;;5022044;28;20121;-52
2022/11/04 12:22:26;;;;;;;95.93;60.03;;;18.60;99.90;;;;;;5024881;28;20417;-47
2022/11/04 12:25:07;;;;;;;175.23;125.05;;;18.60;99.90;;;;;;5028301;28;20026;-52
2022/11/04 12:27:53;;;;;;;191.40;128.40;;;18.60;99.90;;;;;;5024389;28;20045;-55
2022/11/04 12:30:23;;;;;;;156.43;98.47;;;18.60;99.90;;;;;;5009534;28;20450;-48
2022/11/04 12:33:06;;;;;;;108.00;58.28;;;18.60;99.90;;;;;;5006756;28;20065;-50
2022/11/04 12:36:01;;;;;;;97.35;54.67;;;18.60;99.90;;;;;;4992528;28;20046;-48
2022/11/04 12:38:29;;;;;;;104.57;59.28;;;18.60;99.90;;;;;;4969424;28;20043;-50
2022/11/04 12:41:17;;;;;;;122.32;69.40;;;18.60;99.90;;;;;;4963422;28;20074;-50
2022/11/04 12:44:00;;;;;;;121.68;67.32;;;18.60;99.90;;;;;;4967971;28;20034;-49
2022/11/04 12:46:55;;;;;;;123.53;67.30;;;18.70;99.90;;;;;;4965726;28;20086;-46
2022/11/04 12:49:39;;;;;;;129.52;70.30;;;18.80;99.90;;;;;;4965740;28;20496;-50
2022/11/04 12:52:42;;;;;;;163.60;91.13;;;19.10;99.90;;;;;;4973253;28;20074;-54
2022/11/04 12:55:31;;;;;;;137.27;75.95;;;;;;;;;;4972237;28;20046;-48
2022/11/04 12:58:00;;;;;;;82.15;44.42;;;;;;;;;;4955035;28;20042;-50
2022/11/04 13:00:29;;;;;;;60.72;35.85;;;;;;;;;;4954302;28;20039;-52
2022/11/04 13:03:14;;;;;;;66.47;36.28;;;;;;;;;;4952263;28;20445;-47
2022/11/04 13:05:47;;;;;;;78.80;43.05;;;;;;;;;;4934260;29;20084;-46
2022/11/04 13:08:21;;;;;;;102.18;54.65;;;;;;;;;;4934916;29;20040;-48
2022/11/04 13:11:02;;;;;;;90.00;49.30;;;;;;;;;;4936403;28;20365;-48
2022/11/04 13:13:35;;;;;;;91.72;48.17;;;;;;;;;;4935037;29;20047;-46
2022/11/04 13:16:04;;;;;;;109.90;49.83;;;;;;;;;;4991419;28;20076;-46
2022/11/04 13:18:32;;;;;;;90.72;47.65;;;;;;;;;;4996008;28;20521;-46
2022/11/04 13:21:02;;;;;;;82.90;43.30;;;;;;;;;;5009501;28;20096;-47
2022/11/04 13:23:32;;;;;;;70.55;37.67;;;;;;;;;;5007854;28;20041;-46
2022/11/04 13:25:59;;;;;;;61.65;35.25;;;;;;;;;;4977626;28;20041;-45
2022/11/04 13:28:25;;;;;;;75.28;39.97;;;;;;;;;;4974692;28;20049;-46
2022/11/04 13:30:51;;;;;;;65.90;37.50;;;;;;;;;;4974556;28;20550;-47
2022/11/04 13:33:35;;;;;;;75.18;38.13;;;;;;;;;;5009358;28;20049;-47
2022/11/04 13:36:09;;;;;;;69.70;37.72;;;;;;;;;;5035566;28;20048;-46